18°C
Gosport, Hampshire, United Kingdom
Language:  English
Updated17/06/2021 09:20:00 
 

Nearby METAR Reports

 

EGHI - Southampton Wx Centre, United Kingdom
Distance from station: NW 15mi, 24km
Updated: 17-Jun-2021 08:50:00
Mostly cloudy
Mostly cloudy
 Wind from NW
Wind: NW 7 mph , 11 km/h
Temperature: 18°C
Dew Point: 16°C
Humidity: 88%
Barometer: 1010 hPa
Clouds: Mostly cloudy
Visibility: 6 miles , 10 km
Cloud details: Partly cloudy 427 m
Mostly cloudy 853 m
2021/06/17 07:50 EGHI 170750Z 32006KT 270V360 9999 SCT014 BKN028 18/16 Q1010
EGHH - Bournemouth Airport, United Kingdom
Distance from station: W 30mi, 49km
Updated: 17-Jun-2021 08:50:00
Partly cloudy
Partly cloudy
 Wind from NNW
Wind: NNW 12 mph , 19 km/h
Temperature: 17°C
Dew Point: 14°C
Humidity: 83%
Barometer: 1009 hPa
Clouds: Partly cloudy
Visibility: 6 miles , 10 km
Cloud details: Partly cloudy 274 m
2021/06/17 07:50 EGHH 170750Z 33010KT 290V010 9999 SCT009 17/14 Q1009
EGVP - Middle Wallop Airfield, United Kingdom
Distance from station: NW 31mi, 49km
Updated: 17-Jun-2021 08:50:00
Mostly cloudy
Mostly cloudy
 Wind from NW
Wind: NW 9 mph , 15 km/h
Temperature: 17°C
Dew Point: 15°C
Humidity: 88%
Barometer: 1010 hPa
Clouds: Mostly cloudy
Visibility: 6 miles , 10 km
Cloud details: Few Clouds 305 m
Mostly cloudy 3658 m
2021/06/17 07:50 EGVP 170750Z 31008KT 9999 FEW010 BKN120 17/15 Q1010 NOSIG RMK BLU BLU
 
EGVO - RAF Odiham, United Kingdom
Distance from station: NNE 32mi, 52km
Updated: 17-Jun-2021 08:50:00
Light rain, Showers, Mostly cloudy
Light rain, Showers, Mostly cloudy
 Wind from WNW
Wind: WNW 7 mph , 11 km/h
Temperature: 16°C
Dew Point: 16°C
Humidity: 100%
Barometer: 1009 hPa
Summary: Light rain, Showers
Clouds: Mostly cloudy
Visibility: 3 miles , 5 km
Cloud details: Mostly cloudy 122 m
2021/06/17 07:50 EGVO 170750Z 30006KT 5000 -SHRA BKN004 16/16 Q1009 RMK YLO2
EGKA - Shoreham Airport, United Kingdom
Distance from station: E 37mi, 59km
Updated: 17-Jun-2021 08:50:00
Mist, Mostly cloudy
Mist, Mostly cloudy
 Wind from N
Wind: N 6 mph , 9 km/h
Temperature: 18°C
Dew Point: 18°C
Humidity: 100%
Barometer: 1008 hPa
Summary: Mist
Clouds: Mostly cloudy
Visibility: 2 miles , 4 km
Cloud details: Mostly cloudy 152 m
Mostly cloudy 1067 m
2021/06/17 07:50 EGKA 170750Z 35005KT 4000 BR BKN005 BKN035 18/18 Q1008
EGDM - Boscombe Down, United Kingdom
Distance from station: NW 38mi, 61km
Updated: 17-Jun-2021 08:50:00
Mostly cloudy
Mostly cloudy
 Wind from NW
Wind: NW 13 mph , 20 km/h
Temperature: 17°C
Dew Point: 15°C
Humidity: 88%
Barometer: 1010 hPa
Clouds: Mostly cloudy
Visibility: 6 miles , 10 km
Cloud details: Partly cloudy 274 m
Partly cloudy 1219 m
Mostly cloudy 2438 m
2021/06/17 07:50 EGDM 170750Z 32011KT 9999 SCT009 SCT040 BKN080 17/15 Q1010 NOSIG RMK GRN GRN
 
EGLF - Farnborough, United Kingdom
Distance from station: NNE 38mi, 61km
Updated: 17-Jun-2021 08:50:00
Light rain, Haze, Mostly cloudy
Light rain, Haze, Mostly cloudy
 Wind from WNW
Wind: WNW 7 mph , 11 km/h
Temperature: 17°C
Dew Point: 17°C
Humidity: 100%
Barometer: 1009 hPa
Summary: Light rain, Haze
Clouds: Mostly cloudy
Visibility: 3 miles , 4 km
Cloud details: Partly cloudy 152 m
Mostly cloudy 305 m
2021/06/17 07:50 EGLF 170750Z 30006KT 280V340 4200 -RA HZ SCT005 BKN010 17/17 Q1009
EGKK - Gatwick Airport, United Kingdom
Distance from station: ENE 49mi, 78km
Updated: 17-Jun-2021 08:50:00
Haze, Mostly cloudy
Haze, Mostly cloudy
 Wind from WNW
Wind: WNW 6 mph , 9 km/h
Temperature: 19°C
Dew Point: 18°C
Humidity: 94%
Barometer: 1009 hPa
Summary: Haze
Clouds: Mostly cloudy
Visibility: 2 miles , 4 km
Cloud details: Partly cloudy 91 m
Mostly cloudy 213 m
2021/06/17 07:50 EGKK 170750Z 30005KT 4000 HZ SCT003 BKN007 19/18 Q1009
EGLL - Heathrow Airport, United Kingdom
Distance from station: NNE 57mi, 91km
Updated: 17-Jun-2021 08:50:00
Overcast
Overcast
 Wind from NW
Wind: NW 6 mph , 9 km/h
Temperature: 19°C
Dew Point: 16°C
Humidity: 83%
Barometer: 1009 hPa
Clouds: Overcast
Visibility: 6 miles , 10 km
Cloud details: Mostly cloudy 518 m
Overcast 853 m
2021/06/17 07:50 EGLL 170750Z AUTO 32005KT 290V020 9999 BKN017 OVC028 19/16 Q1009 TEMPO BKN012
 
EGUB - RAF Benson, United Kingdom
Distance from station: N 58mi, 93km
Updated: 17-Jun-2021 08:50:00
Overcast
Overcast
 Wind from NW
Wind: NW 6 mph , 9 km/h
Temperature: 17°C
Dew Point: 15°C
Humidity: 88%
Barometer: 1010 hPa
Clouds: Overcast
Visibility: 6 miles , 10 km
Cloud details: Overcast 274 m
2021/06/17 07:50 EGUB 170750Z 31005KT 9999 OVC009 17/15 Q1010 NOSIG RMK GRN GRN
EGWU - RAF Northolt, United Kingdom
Distance from station: NNE 62mi, 99km
Updated: 17-Jun-2021 08:50:00
Light rain, Mostly cloudy
Light rain, Mostly cloudy
 Wind from NW
Wind: NW 8 mph , 13 km/h
Temperature: 18°C
Dew Point: 16°C
Humidity: 88%
Barometer: 1009 hPa
Summary: Light rain
Clouds: Mostly cloudy
Visibility: 6 miles , 10 km
Cloud details: Few Clouds 305 m
Mostly cloudy 671 m
2021/06/17 07:50 EGWU 170750Z 32007KT 9999 -RA FEW010 BKN022 18/16 Q1009 TEMPO SCT010 RMK WHT TEMPO GRN
EGKB - Biggin Hill Airport, United Kingdom
Distance from station: NE 62mi, 100km
Updated: 17-Jun-2021 08:50:00
Mist, Partly cloudy
Mist, Partly cloudy
 Wind from varies
Wind: varies 3 mph , 6 km/h
Temperature: 18°C
Dew Point: 17°C
Humidity: 94%
Barometer: 1009 hPa
Summary: Mist
Clouds: Partly cloudy
Visibility: 3 miles , 5 km
Cloud details: Partly cloudy 305 m
Partly cloudy 1372 m
2021/06/17 07:50 EGKB 170750Z VRB03KT 5000 BR SCT010 SCT045 18/17 Q1009
 
EGDY - RNAS Yeovilton, United Kingdom
Distance from station: WNW 66mi, 107km
Updated: 17-Jun-2021 08:50:00
Mostly cloudy
Mostly cloudy
 Wind from WNW
Wind: WNW 8 mph , 13 km/h
Temperature: 15°C
Dew Point: 12°C
Humidity: 82%
Barometer: 1011 hPa
Clouds: Mostly cloudy
Visibility: 6 miles , 10 km
Cloud details: Few Clouds 305 m
Mostly cloudy 488 m
2021/06/17 07:50 EGDY 170750Z 30007KT 9999 FEW010 BKN016 15/12 Q1011 NOSIG RMK WHT WHT
EGUO - Colerne Airfield, United Kingdom
Distance from station: NW 67mi, 108km
Updated: 14-Feb-2019 22:50:00
NOT Current
Clear
Clear
 Wind from ENE
Wind: ENE 1 mph , 2 km/h
Temperature: 1°C
Dew Point: 0°C
Humidity: 93%
Barometer: 1029 hPa
Summary: Clear
Visibility: greater than 7 miles , 10 km
2019/02/14 22:50 EGUO 142250Z 06001KT CAVOK 01/00 Q1029 BLU NOSIG
EGVA - RAF Fairford, United Kingdom
Distance from station: NNW 67mi, 108km
Updated: 17-Jun-2021 08:56:00
Overcast
Overcast
 Wind from NNW
Wind: NNW 7 mph , 11 km/h
Temperature: 16°C
Dew Point: 15°C
Humidity: 94%
Barometer: 1010.2 hPa
Clouds: Overcast
Visibility: 6 miles , 10 km
Cloud details: Overcast 274 m
2021/06/17 07:56 EGVA 170756Z AUTO 33006KT 9999 OVC009 16/15 A2983 RMK AO2 SLP102 T01600152 VISNO RWY09 $
 
EGVN - RAF Brize Norton, United Kingdom
Distance from station: NNW 71mi, 114km
Updated: 17-Jun-2021 08:50:00
Mostly cloudy
Mostly cloudy
 Wind from NNW
Wind: NNW 9 mph , 15 km/h
Temperature: 16°C
Dew Point: 14°C
Humidity: 88%
Barometer: 1010 hPa
Clouds: Mostly cloudy
Visibility: 6 miles , 10 km
Cloud details: Mostly cloudy 244 m
2021/06/17 07:50 EGVN 170750Z 33008KT 9999 BKN008 16/14 Q1010 NOSIG RMK GRN GRN
EGLC - London City Airport, United Kingdom
Distance from station: NE 71mi, 115km
Updated: 17-Jun-2021 08:50:00
Light rain, Thunderstorm
Light rain, Thunderstorm
 Wind from varies
Wind: varies 2 mph , 4 km/h
Temperature: 20°C
Dew Point: 18°C
Humidity: 88%
Barometer: 1009 hPa
Summary: Light rain
Clouds: Thunderstorm
Visibility: 6 miles , 10 km
Cloud details: Few Clouds 305 m
Mostly cloudy 549 m
2021/06/17 07:50 EGLC 170750Z AUTO VRB02KT 9999 -RA FEW010/// BKN018/// //////CB 20/18 Q1009
EGGD - Bristol Airport, United Kingdom
Distance from station: WNW 80mi, 128km
Updated: 17-Jun-2021 08:50:00
Mist, Overcast
Mist, Overcast
 Wind from varies
Wind: varies 3 mph , 6 km/h
Temperature: 14°C
Dew Point: 14°C
Humidity: 100%
Barometer: 1011 hPa
Summary: Mist
Clouds: Overcast
Visibility: 2 miles , 3 km
Cloud details: Mostly cloudy 30 m
Overcast 122 m
2021/06/17 07:50 EGGD 170750Z AUTO VRB03KT 3400 BR BKN001 OVC004 14/14 Q1011
 
LFRC - Cherbourg-Maupertus Airport, France
Distance from station: S 81mi, 130km
Updated: 17-Jun-2021 09:00:00

 Wind from NW
Wind: NW 5 mph , 7 km/h
Visibility: 0 mile , 0 km
2021/06/17 08:00 LFRC 170800Z AUTO 32004KT 290V010 0350 0300 R28/0550N FG VV/// 14/14 Q1010 TEMPO 3000 SHRA BKN003 SCT060CB
EGGW - Luton Airport, United Kingdom
Distance from station: NNE 82mi, 132km
Updated: 17-Jun-2021 08:50:00
Light drizzle, Overcast
Light drizzle, Overcast
 Wind from N
Wind: N 6 mph , 9 km/h, Gust: 17 mph , 28 km/h
Temperature: 17°C
Dew Point: 16°C
Humidity: 94%
Barometer: 1009 hPa
Summary: Light Drizzle
Clouds: Overcast
Visibility: 3 miles , 5 km
Cloud details: Mostly cloudy 152 m
Mostly cloudy 732 m
Overcast 945 m
2021/06/17 07:50 EGGW 170750Z AUTO 35005G15KT 270V020 5000 -DZ BKN005 BKN024 OVC031 17/16 Q1009